sensor_id;sensor_type;location;lat;lon;timestamp;pressure;altitude;pressure_sealevel;temperature;humidity
44103;BME280;29769;42.178;24.742;2023-03-05T00:01:42;99273.59;;;2.68;100.00
44103;BME280;29769;42.178;24.742;2023-03-05T00:04:27;99271.06;;;2.75;100.00
44103;BME280;29769;42.178;24.742;2023-03-05T00:07:12;99269.38;;;2.78;100.00
44103;BME280;29769;42.178;24.742;2023-03-05T00:09:59;99268.47;;;2.75;100.00
44103;BME280;29769;42.178;24.742;2023-03-05T00:12:44;99271.00;;;2.67;100.00
44103;BME280;29769;42.178;24.742;2023-03-05T00:15:28;99277.94;;;2.69;100.00
44103;BME280;29769;42.178;24.742;2023-03-05T00:18:13;99271.78;;;2.57;100.00
44103;BME280;29769;42.178;24.742;2023-03-05T00:20:59;99258.75;;;2.52;100.00
44103;BME280;29769;42.178;24.742;2023-03-05T00:23:44;99279.59;;;2.61;100.00
44103;BME280;29769;42.178;24.742;2023-03-05T00:26:29;99260.53;;;2.59;100.00
44103;BME280;29769;42.178;24.742;2023-03-05T00:29:16;99263.91;;;2.51;100.00
44103;BME280;29769;42.178;24.742;2023-03-05T00:32:02;99269.84;;;2.38;100.00
44103;BME280;29769;42.178;24.742;2023-03-05T00:34:47;99254.19;;;2.27;100.00
44103;BME280;29769;42.178;24.742;2023-03-05T00:37:33;99257.59;;;2.24;100.00
44103;BME280;29769;42.178;24.742;2023-03-05T00:40:18;99255.75;;;2.14;100.00
44103;BME280;29769;42.178;24.742;2023-03-05T00:43:03;99256.56;;;2.10;100.00
44103;BME280;29769;42.178;24.742;2023-03-05T00:45:48;99253.16;;;2.13;100.00
44103;BME280;29769;42.178;24.742;2023-03-05T00:48:33;99244.53;;;2.15;100.00
44103;BME280;29769;42.178;24.742;2023-03-05T00:51:19;99241.97;;;2.20;100.00
44103;BME280;29769;42.178;24.742;2023-03-05T00:54:04;99241.94;;;2.15;100.00
44103;BME280;29769;42.178;24.742;2023-03-05T00:56:49;99241.06;;;2.13;100.00
44103;BME280;29769;42.178;24.742;2023-03-05T00:59:34;99230.63;;;2.09;100.00
44103;BME280;29769;42.178;24.742;2023-03-05T01:02:20;99234.94;;;2.10;100.00
44103;BME280;29769;42.178;24.742;2023-03-05T01:05:06;99237.47;;;2.05;100.00
44103;BME280;29769;42.178;24.742;2023-03-05T01:07:52;99235.72;;;2.03;100.00
44103;BME280;29769;42.178;24.742;2023-03-05T01:10:37;99227.94;;;2.00;100.00
44103;BME280;29769;42.178;24.742;2023-03-05T01:13:22;99228.78;;;1.99;100.00
44103;BME280;29769;42.178;24.742;2023-03-05T01:16:07;99231.38;;;1.99;100.00
44103;BME280;29769;42.178;24.742;2023-03-05T01:18:52;99229.59;;;1.95;100.00
44103;BME280;29769;42.178;24.742;2023-03-05T01:21:38;99231.25;;;1.91;100.00
44103;BME280;29769;42.178;24.742;2023-03-05T01:24:22;99235.44;;;1.78;100.00
44103;BME280;29769;42.178;24.742;2023-03-05T01:27:08;99232.84;;;1.77;100.00
44103;BME280;29769;42.178;24.742;2023-03-05T01:29:53;99200.88;;;1.79;100.00
44103;BME280;29769;42.178;24.742;2023-03-05T01:32:38;99221.03;;;2.03;100.00
44103;BME280;29769;42.178;24.742;2023-03-05T01:35:24;99228.91;;;2.14;100.00
44103;BME280;29769;42.178;24.742;2023-03-05T01:38:09;99228.94;;;2.15;100.00
44103;BME280;29769;42.178;24.742;2023-03-05T01:40:54;99214.44;;;2.31;100.00
44103;BME280;29769;42.178;24.742;2023-03-05T01:43:39;99225.75;;;2.39;100.00
44103;BME280;29769;42.178;24.742;2023-03-05T01:49:26;99212.78;;;2.42;100.00
44103;BME280;29769;42.178;24.742;2023-03-05T01:52:15;99212.75;;;2.39;100.00
44103;BME280;29769;42.178;24.742;2023-03-05T01:55:05;99194.56;;;2.35;100.00
44103;BME280;29769;42.178;24.742;2023-03-05T01:58:10;99197.16;;;2.38;100.00
44103;BME280;29769;42.178;24.742;2023-03-05T02:00:57;99202.50;;;2.53;100.00
44103;BME280;29769;42.178;24.742;2023-03-05T02:03:42;99204.31;;;2.61;100.00
44103;BME280;29769;42.178;24.742;2023-03-05T02:06:27;99202.56;;;2.60;100.00
44103;BME280;29769;42.178;24.742;2023-03-05T02:09:13;99205.19;;;2.65;100.00
44103;BME280;29769;42.178;24.742;2023-03-05T02:11:57;99198.28;;;2.68;100.00
44103;BME280;29769;42.178;24.742;2023-03-05T02:14:45;99200.13;;;2.79;100.00
44103;BME280;29769;42.178;24.742;2023-03-05T02:17:32;99197.59;;;2.88;100.00
44103;BME280;29769;42.178;24.742;2023-03-05T02:20:22;99192.44;;;2.95;100.00
44103;BME280;29769;42.178;24.742;2023-03-05T02:23:08;99186.44;;;3.02;100.00
44103;BME280;29769;42.178;24.742;2023-03-05T02:25:53;99187.31;;;3.06;100.00
44103;BME280;29769;42.178;24.742;2023-03-05T02:28:39;99187.38;;;3.12;100.00
44103;BME280;29769;42.178;24.742;2023-03-05T02:31:26;99169.09;;;2.98;100.00
44103;BME280;29769;42.178;24.742;2023-03-05T02:34:11;99196.00;;;3.08;100.00
44103;BME280;29769;42.178;24.742;2023-03-05T02:36:56;99158.63;;;2.91;100.00
44103;BME280;29769;42.178;24.742;2023-03-05T02:39:41;99187.31;;;3.03;100.00
44103;BME280;29769;42.178;24.742;2023-03-05T02:42:27;99184.72;;;3.09;100.00
44103;BME280;29769;42.178;24.742;2023-03-05T02:45:15;99187.47;;;3.26;100.00
44103;BME280;29769;42.178;24.742;2023-03-05T02:48:01;99191.75;;;3.18;100.00
44103;BME280;29769;42.178;24.742;2023-03-05T02:50:46;99189.09;;;3.11;100.00
44103;BME280;29769;42.178;24.742;2023-03-05T02:53:33;99190.78;;;3.03;100.00
44103;BME280;29769;42.178;24.742;2023-03-05T02:56:18;99192.44;;;2.94;100.00
44103;BME280;29769;42.178;24.742;2023-03-05T02:59:03;99188.09;;;2.91;100.00
44103;BME280;29769;42.178;24.742;2023-03-05T03:01:48;99186.34;;;2.89;100.00
44103;BME280;29769;42.178;24.742;2023-03-05T03:04:33;99188.88;;;2.83;100.00
44103;BME280;29769;42.178;24.742;2023-03-05T03:07:18;99194.00;;;2.71;100.00
44103;BME280;29769;42.178;24.742;2023-03-05T03:10:04;99197.38;;;2.63;100.00
44103;BME280;29769;42.178;24.742;2023-03-05T03:12:49;99187.03;;;2.66;100.00
44103;BME280;29769;42.178;24.742;2023-03-05T03:15:34;99182.78;;;2.78;100.00
44103;BME280;29769;42.178;24.742;2023-03-05T03:18:21;99162.91;;;2.83;100.00
44103;BME280;29769;42.178;24.742;2023-03-05T03:21:06;99178.59;;;2.95;100.00
44103;BME280;29769;42.178;24.742;2023-03-05T03:23:52;99167.34;;;2.94;100.00
44103;BME280;29769;42.178;24.742;2023-03-05T03:26:37;99177.88;;;3.16;100.00
44103;BME280;29769;42.178;24.742;2023-03-05T03:29:21;99169.28;;;3.33;100.00
44103;BME280;29769;42.178;24.742;2023-03-05T03:32:06;99177.13;;;3.42;100.00
44103;BME280;29769;42.178;24.742;2023-03-05T03:34:51;99172.00;;;3.53;100.00
44103;BME280;29769;42.178;24.742;2023-03-05T03:37:36;99174.56;;;3.50;100.00
44103;BME280;29769;42.178;24.742;2023-03-05T03:40:20;99182.34;;;3.45;100.00
44103;BME280;29769;42.178;24.742;2023-03-05T03:43:06;99181.53;;;3.49;100.00
44103;BME280;29769;42.178;24.742;2023-03-05T03:45:50;99179.78;;;3.48;100.00
44103;BME280;29769;42.178;24.742;2023-03-05T03:48:35;99184.91;;;3.41;100.00
44103;BME280;29769;42.178;24.742;2023-03-05T03:51:20;99182.34;;;3.39;100.00
44103;BME280;29769;42.178;24.742;2023-03-05T03:54:05;99185.75;;;3.31;100.00
44103;BME280;29769;42.178;24.742;2023-03-05T03:56:50;99182.28;;;3.30;100.00
44103;BME280;29769;42.178;24.742;2023-03-05T03:59:35;99182.31;;;3.35;100.00
44103;BME280;29769;42.178;24.742;2023-03-05T04:02:21;99163.09;;;3.10;100.00
44103;BME280;29769;42.178;24.742;2023-03-05T04:05:06;99163.97;;;3.07;100.00
44103;BME280;29769;42.178;24.742;2023-03-05T04:07:51;99166.50;;;3.01;100.00
44103;BME280;29769;42.178;24.742;2023-03-05T04:10:35;99173.34;;;2.87;100.00
44103;BME280;29769;42.178;24.742;2023-03-05T04:13:20;99171.50;;;2.71;100.00
44103;BME280;29769;42.178;24.742;2023-03-05T04:16:06;99178.41;;;2.67;100.00
44103;BME280;29769;42.178;24.742;2023-03-05T04:18:51;99154.03;;;2.55;100.00
44103;BME280;29769;42.178;24.742;2023-03-05T04:21:36;99176.66;;;2.68;100.00
44103;BME280;29769;42.178;24.742;2023-03-05T04:24:21;99183.66;;;2.78;100.00
44103;BME280;29769;42.178;24.742;2023-03-05T04:27:05;99176.78;;;2.85;100.00
44103;BME280;29769;42.178;24.742;2023-03-05T04:29:50;99181.19;;;2.90;100.00
44103;BME280;29769;42.178;24.742;2023-03-05T04:32:38;99184.69;;;2.98;100.00
44103;BME280;29769;42.178;24.742;2023-03-05T04:35:23;99177.81;;;3.06;100.00
44103;BME280;29769;42.178;24.742;2023-03-05T04:38:08;99175.25;;;3.11;100.00
44103;BME280;29769;42.178;24.742;2023-03-05T04:40:53;99184.78;;;3.15;100.00
44103;BME280;29769;42.178;24.742;2023-03-05T04:43:37;99175.25;;;3.11;100.00
44103;BME280;29769;42.178;24.742;2023-03-05T04:46:22;99170.94;;;3.13;100.00
44103;BME280;29769;42.178;24.742;2023-03-05T04:49:07;99171.81;;;3.17;100.00
44103;BME280;29769;42.178;24.742;2023-03-05T04:51:52;99177.84;;;3.11;100.00
44103;BME280;29769;42.178;24.742;2023-03-05T04:54:37;99186.50;;;3.14;100.00
44103;BME280;29769;42.178;24.742;2023-03-05T04:57:22;99183.06;;;3.17;100.00
44103;BME280;29769;42.178;24.742;2023-03-05T05:00:10;99178.72;;;3.13;100.00
44103;BME280;29769;42.178;24.742;2023-03-05T05:02:57;99183.84;;;3.05;100.00
44103;BME280;29769;42.178;24.742;2023-03-05T05:05:42;99187.28;;;3.00;100.00
44103;BME280;29769;42.178;24.742;2023-03-05T05:08:28;99157.03;;;3.06;100.00
44103;BME280;29769;42.178;24.742;2023-03-05T05:11:13;99184.03;;;3.34;100.00
44103;BME280;29769;42.178;24.742;2023-03-05T05:13:58;99179.75;;;3.50;100.00
44103;BME280;29769;42.178;24.742;2023-03-05T05:16:43;99187.59;;;3.56;100.00
44103;BME280;29769;42.178;24.742;2023-03-05T05:19:28;99189.22;;;3.27;100.00
44103;BME280;29769;42.178;24.742;2023-03-05T05:22:13;99196.03;;;3.12;100.00
44103;BME280;29769;42.178;24.742;2023-03-05T05:24:58;99194.22;;;2.98;100.00
44103;BME280;29769;42.178;24.742;2023-03-05T05:27:43;99196.78;;;2.93;100.00
44103;BME280;29769;42.178;24.742;2023-03-05T05:30:28;99204.56;;;2.96;100.00
44103;BME280;29769;42.178;24.742;2023-03-05T05:33:13;99206.34;;;2.99;100.00
44103;BME280;29769;42.178;24.742;2023-03-05T05:35:58;99139.50;;;2.72;100.00
44103;BME280;29769;42.178;24.742;2023-03-05T05:38:42;99211.69;;;3.25;100.00
44103;BME280;29769;42.178;24.742;2023-03-05T05:41:27;99200.50;;;3.35;100.00
44103;BME280;29769;42.178;24.742;2023-03-05T05:44:12;99206.69;;;3.61;100.00
44103;BME280;29769;42.178;24.742;2023-03-05T05:46:57;99206.72;;;3.64;100.00
44103;BME280;29769;42.178;24.742;2023-03-05T05:49:42;99195.47;;;3.73;100.00
44103;BME280;29769;42.178;24.742;2023-03-05T05:52:27;99212.81;;;3.74;100.00
44103;BME280;29769;42.178;24.742;2023-03-05T05:55:12;99213.69;;;3.77;100.00
44103;BME280;29769;42.178;24.742;2023-03-05T05:57:57;99215.50;;;3.90;100.00
44103;BME280;29769;42.178;24.742;2023-03-05T06:00:41;99225.97;;;4.04;100.00
44103;BME280;29769;42.178;24.742;2023-03-05T06:03:26;99219.94;;;4.28;100.00
44103;BME280;29769;42.178;24.742;2023-03-05T06:06:14;99220.00;;;4.49;100.00
44103;BME280;29769;42.178;24.742;2023-03-05T06:09:00;99221.75;;;4.70;100.00
44103;BME280;29769;42.178;24.742;2023-03-05T06:11:45;99220.91;;;4.81;100.00
44103;BME280;29769;42.178;24.742;2023-03-05T06:14:29;99209.59;;;4.93;100.00
44103;BME280;29769;42.178;24.742;2023-03-05T06:17:14;99214.75;;;5.23;100.00
44103;BME280;29769;42.178;24.742;2023-03-05T06:19:59;99199.94;;;5.45;100.00
44103;BME280;29769;42.178;24.742;2023-03-05T06:22:44;99202.44;;;5.78;100.00
44103;BME280;29769;42.178;24.742;2023-03-05T06:25:29;99219.50;;;6.52;100.00
44103;BME280;29769;42.178;24.742;2023-03-05T06:28:14;99211.78;;;7.38;100.00
44103;BME280;29769;42.178;24.742;2023-03-05T06:31:20;99226.84;;;7.95;100.00
44103;BME280;29769;42.178;24.742;2023-03-05T06:34:11;99210.03;;;8.76;100.00
44103;BME280;29769;42.178;24.742;2023-03-05T06:36:56;99211.25;;;9.58;100.00
44103;BME280;29769;42.178;24.742;2023-03-05T06:39:41;99217.97;;;10.15;100.00
44103;BME280;29769;42.178;24.742;2023-03-05T06:42:25;99219.50;;;9.82;100.00
44103;BME280;29769;42.178;24.742;2023-03-05T06:45:10;99220.09;;;9.97;100.00
44103;BME280;29769;42.178;24.742;2023-03-05T06:47:55;99221.22;;;10.66;100.00
44103;BME280;29769;42.178;24.742;2023-03-05T06:50:40;99205.13;;;11.14;100.00
44103;BME280;29769;42.178;24.742;2023-03-05T06:53:25;99226.75;;;11.60;100.00
44103;BME280;29769;42.178;24.742;2023-03-05T06:56:10;99219.13;;;12.44;100.00
44103;BME280;29769;42.178;24.742;2023-03-05T06:58:55;99215.78;;;13.21;100.00
44103;BME280;29769;42.178;24.742;2023-03-05T07:01:40;99212.69;;;13.34;100.00
44103;BME280;29769;42.178;24.742;2023-03-05T07:04:24;99201.88;;;13.67;100.00
44103;BME280;29769;42.178;24.742;2023-03-05T07:07:09;99193.94;;;13.90;92.40
44103;BME280;29769;42.178;24.742;2023-03-05T07:09:54;99199.22;;;13.90;87.26
44103;BME280;29769;42.178;24.742;2023-03-05T07:12:39;99201.78;;;13.93;81.75
44103;BME280;29769;42.178;24.742;2023-03-05T07:15:25;99199.19;;;14.40;79.02
44103;BME280;29769;42.178;24.742;2023-03-05T07:18:10;99203.81;;;14.33;78.80
44103;BME280;29769;42.178;24.742;2023-03-05T07:20:55;99203.50;;;15.07;75.33
44103;BME280;29769;42.178;24.742;2023-03-05T07:23:40;99200.00;;;15.49;75.16
44103;BME280;29769;42.178;24.742;2023-03-05T07:26:25;99191.25;;;15.67;69.91
44103;BME280;29769;42.178;24.742;2023-03-05T07:29:11;99196.78;;;15.21;70.73
44103;BME280;29769;42.178;24.742;2023-03-05T07:31:55;99203.13;;;14.73;73.54
44103;BME280;29769;42.178;24.742;2023-03-05T07:34:40;99178.47;;;15.14;71.98
44103;BME280;29769;42.178;24.742;2023-03-05T07:37:25;99189.53;;;14.82;72.72
44103;BME280;29769;42.178;24.742;2023-03-05T07:40:10;99187.38;;;14.70;73.67
44103;BME280;29769;42.178;24.742;2023-03-05T07:42:55;99191.31;;;14.82;72.81
44103;BME280;29769;42.178;24.742;2023-03-05T07:45:48;99192.53;;;14.95;73.91
44103;BME280;29769;42.178;24.742;2023-03-05T07:48:32;99183.69;;;15.98;68.90
44103;BME280;29769;42.178;24.742;2023-03-05T07:51:18;99187.13;;;16.38;66.05
44103;BME280;29769;42.178;24.742;2023-03-05T07:54:03;99186.84;;;16.25;66.09
44103;BME280;29769;42.178;24.742;2023-03-05T07:56:48;99192.16;;;16.25;64.84
44103;BME280;29769;42.178;24.742;2023-03-05T07:59:33;99191.50;;;15.81;66.18
44103;BME280;29769;42.178;24.742;2023-03-05T08:02:18;99180.28;;;14.92;70.13
44103;BME280;29769;42.178;24.742;2023-03-05T08:05:04;99185.56;;;13.79;73.91
44103;BME280;29769;42.178;24.742;2023-03-05T08:07:49;99171.91;;;13.17;77.33
44103;BME280;29769;42.178;24.742;2023-03-05T08:10:35;99163.50;;;13.04;79.83
44103;BME280;29769;42.178;24.742;2023-03-05T08:13:20;99159.47;;;12.94;81.82
44103;BME280;29769;42.178;24.742;2023-03-05T08:16:05;99155.94;;;12.67;84.92
44103;BME280;29769;42.178;24.742;2023-03-05T08:18:55;99157.66;;;12.13;86.03
44103;BME280;29769;42.178;24.742;2023-03-05T08:21:41;99155.03;;;11.82;88.63
44103;BME280;29769;42.178;24.742;2023-03-05T08:24:25;99143.56;;;10.86;95.99
44103;BME280;29769;42.178;24.742;2023-03-05T08:27:13;99142.84;;;10.81;100.00
44103;BME280;29769;42.178;24.742;2023-03-05T08:30:00;99128.00;;;10.77;100.00
44103;BME280;29769;42.178;24.742;2023-03-05T08:32:47;99154.69;;;10.97;100.00
44103;BME280;29769;42.178;24.742;2023-03-05T08:35:32;99144.69;;;11.11;100.00
44103;BME280;29769;42.178;24.742;2023-03-05T08:38:17;99146.69;;;11.35;100.00
44103;BME280;29769;42.178;24.742;2023-03-05T08:41:02;99152.13;;;11.60;100.00
44103;BME280;29769;42.178;24.742;2023-03-05T08:43:47;99129.47;;;11.22;100.00
44103;BME280;29769;42.178;24.742;2023-03-05T08:46:32;99141.41;;;11.35;100.00
44103;BME280;29769;42.178;24.742;2023-03-05T08:49:18;99133.81;;;11.86;100.00
44103;BME280;29769;42.178;24.742;2023-03-05T08:52:03;99130.44;;;12.12;100.00
44103;BME280;29769;42.178;24.742;2023-03-05T08:54:47;99125.66;;;11.65;98.56
44103;BME280;29769;42.178;24.742;2023-03-05T08:57:32;99132.53;;;11.70;100.00
44103;BME280;29769;42.178;24.742;2023-03-05T09:00:17;99127.41;;;11.64;99.20
44103;BME280;29769;42.178;24.742;2023-03-05T09:03:02;99122.50;;;11.52;99.40
44103;BME280;29769;42.178;24.742;2023-03-05T09:05:47;99111.63;;;11.33;98.60
44103;BME280;29769;42.178;24.742;2023-03-05T09:08:34;99116.41;;;11.50;98.31
44103;BME280;29769;42.178;24.742;2023-03-05T09:11:19;99126.56;;;11.31;99.09
44103;BME280;29769;42.178;24.742;2023-03-05T09:14:05;99108.13;;;11.33;99.48
44103;BME280;29769;42.178;24.742;2023-03-05T09:16:50;99125.13;;;11.52;100.00
44103;BME280;29769;42.178;24.742;2023-03-05T09:19:35;99117.84;;;11.31;100.00
44103;BME280;29769;42.178;24.742;2023-03-05T09:22:20;99111.38;;;11.10;100.00
44103;BME280;29769;42.178;24.742;2023-03-05T09:25:05;99101.13;;;10.99;100.00
44103;BME280;29769;42.178;24.742;2023-03-05T09:27:50;99107.69;;;10.83;100.00
44103;BME280;29769;42.178;24.742;2023-03-05T09:30:35;99113.22;;;11.06;100.00
44103;BME280;29769;42.178;24.742;2023-03-05T09:33:19;99110.72;;;11.34;100.00
44103;BME280;29769;42.178;24.742;2023-03-05T09:36:18;99085.00;;;11.11;100.00
44103;BME280;29769;42.178;24.742;2023-03-05T09:39:04;99098.34;;;11.36;100.00
44103;BME280;29769;42.178;24.742;2023-03-05T09:42:06;99093.06;;;11.98;99.47
44103;BME280;29769;42.178;24.742;2023-03-05T09:50:41;99082.28;;;13.12;85.01
44103;BME280;29769;42.178;24.742;2023-03-05T09:56:58;99075.03;;;14.34;73.53
44103;BME280;29769;42.178;24.742;2023-03-05T09:59:34;99068.34;;;14.89;72.42
44103;BME280;29769;42.178;24.742;2023-03-05T10:02:29;99056.19;;;14.19;71.99
44103;BME280;29769;42.178;24.742;2023-03-05T10:08:12;99049.16;;;15.63;67.50
44103;BME280;29769;42.178;24.742;2023-03-05T10:11:00;99047.09;;;15.10;69.48
44103;BME280;29769;42.178;24.742;2023-03-05T10:13:48;99038.50;;;16.38;65.47
44103;BME280;29769;42.178;24.742;2023-03-05T10:25:53;99028.13;;;14.59;66.85
44103;BME280;29769;42.178;24.742;2023-03-05T10:35:27;99004.28;;;14.39;66.27
44103;BME280;29769;42.178;24.742;2023-03-05T10:45:20;98993.25;;;14.49;68.99
44103;BME280;29769;42.178;24.742;2023-03-05T10:48:08;98983.81;;;14.84;65.60
44103;BME280;29769;42.178;24.742;2023-03-05T10:54:34;98966.50;;;14.96;64.43
44103;BME280;29769;42.178;24.742;2023-03-05T10:57:22;98963.56;;;15.41;63.48
44103;BME280;29769;42.178;24.742;2023-03-05T11:00:27;98957.31;;;15.23;61.17
44103;BME280;29769;42.178;24.742;2023-03-05T11:03:12;98953.84;;;16.49;57.89
44103;BME280;29769;42.178;24.742;2023-03-05T11:06:00;98940.09;;;17.58;54.22
44103;BME280;29769;42.178;24.742;2023-03-05T11:08:45;98934.94;;;17.87;53.91
44103;BME280;29769;42.178;24.742;2023-03-05T11:11:30;98912.81;;;17.70;53.07
44103;BME280;29769;42.178;24.742;2023-03-05T11:14:27;98898.25;;;17.62;52.58
44103;BME280;29769;42.178;24.742;2023-03-05T11:17:26;98899.81;;;18.11;50.87
44103;BME280;29769;42.178;24.742;2023-03-05T11:23:23;98869.91;;;18.66;48.20
44103;BME280;29769;42.178;24.742;2023-03-05T11:28:58;98850.88;;;21.85;41.63
44103;BME280;29769;42.178;24.742;2023-03-05T11:31:43;98852.09;;;22.39;40.40
44103;BME280;29769;42.178;24.742;2023-03-05T11:34:29;98844.88;;;21.08;41.20
44103;BME280;29769;42.178;24.742;2023-03-05T11:37:25;98841.63;;;19.75;42.93
44103;BME280;29769;42.178;24.742;2023-03-05T11:40:19;98850.44;;;18.50;45.64
44103;BME280;29769;42.178;24.742;2023-03-05T11:43:04;98849.47;;;17.93;47.22
44103;BME280;29769;42.178;24.742;2023-03-05T11:46:08;98855.53;;;17.95;47.40
44103;BME280;29769;42.178;24.742;2023-03-05T11:48:55;98842.69;;;17.56;47.41
44103;BME280;29769;42.178;24.742;2023-03-05T11:55:13;98847.19;;;17.24;50.49
44103;BME280;29769;42.178;24.742;2023-03-05T12:01:17;98851.16;;;16.84;49.61
44103;BME280;29769;42.178;24.742;2023-03-05T12:04:03;98847.31;;;16.89;48.96
44103;BME280;29769;42.178;24.742;2023-03-05T12:06:51;98851.75;;;16.22;50.22
44103;BME280;29769;42.178;24.742;2023-03-05T12:09:45;98859.66;;;15.53;52.34
44103;BME280;29769;42.178;24.742;2023-03-05T12:15:37;98844.56;;;15.72;51.58
44103;BME280;29769;42.178;24.742;2023-03-05T12:27:09;98842.97;;;14.76;55.78
44103;BME280;29769;42.178;24.742;2023-03-05T12:29:54;98841.78;;;14.63;54.97
44103;BME280;29769;42.178;24.742;2023-03-05T12:35:32;98835.47;;;14.47;56.35
44103;BME280;29769;42.178;24.742;2023-03-05T12:38:31;98829.41;;;14.63;55.54
44103;BME280;29769;42.178;24.742;2023-03-05T12:49:54;98830.72;;;15.30;62.38
44103;BME280;29769;42.178;24.742;2023-03-05T12:52:41;98826.41;;;15.27;65.18
44103;BME280;29769;42.178;24.742;2023-03-05T12:55:33;98828.81;;;15.14;67.27
44103;BME280;29769;42.178;24.742;2023-03-05T12:58:39;98835.66;;;15.19;70.58
44103;BME280;29769;42.178;24.742;2023-03-05T13:01:37;98830.09;;;14.87;69.27
44103;BME280;29769;42.178;24.742;2023-03-05T13:04:28;98835.13;;;14.54;71.39
44103;BME280;29769;42.178;24.742;2023-03-05T13:07:16;98841.78;;;14.44;72.26
44103;BME280;29769;42.178;24.742;2023-03-05T13:10:01;98828.94;;;14.35;71.51
44103;BME280;29769;42.178;24.742;2023-03-05T13:12:54;98832.44;;;14.15;70.58
44103;BME280;29769;42.178;24.742;2023-03-05T13:15:44;98828.00;;;14.36;71.25
44103;BME280;29769;42.178;24.742;2023-03-05T13:18:30;98813.09;;;14.34;70.75
44103;BME280;29769;42.178;24.742;2023-03-05T13:21:23;98828.41;;;14.47;69.98
44103;BME280;29769;42.178;24.742;2023-03-05T13:24:17;98823.81;;;14.51;68.72
44103;BME280;29769;42.178;24.742;2023-03-05T13:27:20;98824.66;;;14.72;69.04
44103;BME280;29769;42.178;24.742;2023-03-05T13:33:26;98819.16;;;14.76;68.80
44103;BME280;29769;42.178;24.742;2023-03-05T13:36:13;98813.63;;;14.62;69.83
44103;BME280;29769;42.178;24.742;2023-03-05T13:38:59;98813.31;;;14.68;69.61
44103;BME280;29769;42.178;24.742;2023-03-05T13:41:54;98805.69;;;14.62;69.44
44103;BME280;29769;42.178;24.742;2023-03-05T13:44:40;98811.63;;;14.86;68.38
44103;BME280;29769;42.178;24.742;2023-03-05T13:47:26;98807.84;;;14.91;67.95
44103;BME280;29769;42.178;24.742;2023-03-05T13:50:26;98803.47;;;14.90;68.66
44103;BME280;29769;42.178;24.742;2023-03-05T13:53:19;98813.44;;;14.85;68.82
44103;BME280;29769;42.178;24.742;2023-03-05T13:56:16;98794.09;;;14.83;67.89
44103;BME280;29769;42.178;24.742;2023-03-05T13:59:01;98807.75;;;14.74;68.39
44103;BME280;29769;42.178;24.742;2023-03-05T14:01:46;98790.78;;;14.59;69.38
44103;BME280;29769;42.178;24.742;2023-03-05T14:04:36;98807.38;;;14.63;69.33
44103;BME280;29769;42.178;24.742;2023-03-05T14:07:35;98802.44;;;14.55;70.45
44103;BME280;29769;42.178;24.742;2023-03-05T14:10:35;98804.25;;;14.35;70.30
44103;BME280;29769;42.178;24.742;2023-03-05T14:13:22;98811.13;;;14.18;71.41
44103;BME280;29769;42.178;24.742;2023-03-05T14:16:08;98803.78;;;14.25;71.79
44103;BME280;29769;42.178;24.742;2023-03-05T14:18:58;98802.13;;;14.22;71.67
44103;BME280;29769;42.178;24.742;2023-03-05T14:21:47;98801.88;;;14.08;72.46
44103;BME280;29769;42.178;24.742;2023-03-05T14:24:32;98806.72;;;13.99;76.36
44103;BME280;29769;42.178;24.742;2023-03-05T14:27:19;98800.78;;;13.94;78.73
44103;BME280;29769;42.178;24.742;2023-03-05T14:30:13;98797.31;;;13.92;79.82
44103;BME280;29769;42.178;24.742;2023-03-05T14:33:01;98790.88;;;13.57;85.95
44103;BME280;29769;42.178;24.742;2023-03-05T14:35:50;98795.34;;;13.34;89.33
44103;BME280;29769;42.178;24.742;2023-03-05T14:38:38;98796.56;;;13.26;89.37
44103;BME280;29769;42.178;24.742;2023-03-05T14:41:39;98802.88;;;13.22;88.07
44103;BME280;29769;42.178;24.742;2023-03-05T14:44:25;98781.63;;;13.03;87.32
44103;BME280;29769;42.178;24.742;2023-03-05T14:47:09;98804.59;;;13.23;87.13
44103;BME280;29769;42.178;24.742;2023-03-05T14:49:54;98795.06;;;13.19;86.94
44103;BME280;29769;42.178;24.742;2023-03-05T14:52:39;98799.25;;;13.24;85.54
44103;BME280;29769;42.178;24.742;2023-03-05T14:55:26;98794.53;;;13.32;82.81
44103;BME280;29769;42.178;24.742;2023-03-05T14:58:20;98798.91;;;13.33;81.51
44103;BME280;29769;42.178;24.742;2023-03-05T15:01:05;98800.53;;;13.14;81.95
44103;BME280;29769;42.178;24.742;2023-03-05T15:03:50;98801.34;;;13.38;82.28
44103;BME280;29769;42.178;24.742;2023-03-05T15:06:36;98802.59;;;13.71;80.59
44103;BME280;29769;42.178;24.742;2023-03-05T15:09:22;98791.03;;;13.74;79.19
44103;BME280;29769;42.178;24.742;2023-03-05T15:12:08;98795.84;;;13.64;80.32
44103;BME280;29769;42.178;24.742;2023-03-05T15:14:54;98801.38;;;13.58;82.16
44103;BME280;29769;42.178;24.742;2023-03-05T15:17:42;98802.13;;;13.82;81.88
44103;BME280;29769;42.178;24.742;2023-03-05T15:20:29;98802.59;;;13.92;79.21
44103;BME280;29769;42.178;24.742;2023-03-05T15:23:14;98796.19;;;13.77;77.38
44103;BME280;29769;42.178;24.742;2023-03-05T15:25:59;98796.56;;;13.68;78.22
44103;BME280;29769;42.178;24.742;2023-03-05T15:28:48;98789.00;;;13.39;79.08
44103;BME280;29769;42.178;24.742;2023-03-05T15:31:33;98788.19;;;12.70;82.85
44103;BME280;29769;42.178;24.742;2023-03-05T15:34:21;98790.56;;;12.06;87.76
44103;BME280;29769;42.178;24.742;2023-03-05T15:37:06;98798.53;;;11.80;91.72
44103;BME280;29769;42.178;24.742;2023-03-05T15:39:52;98791.28;;;11.58;94.78
44103;BME280;29769;42.178;24.742;2023-03-05T15:42:36;98803.38;;;11.39;98.18
44103;BME280;29769;42.178;24.742;2023-03-05T15:45:21;98808.25;;;11.24;100.00
44103;BME280;29769;42.178;24.742;2023-03-05T15:48:06;98806.09;;;11.08;100.00
44103;BME280;29769;42.178;24.742;2023-03-05T15:50:51;98809.13;;;10.96;100.00